Terminal Aerodrome Forecast
Issued by NWS

Home | Current Version | Previous Version | Text Only | Print | Product List | Glossary On
Versions: 1 2 3 4 5 6 7 8 9 10 11 12 13 14 15 16 17 18 19 20 21 22 23 24 25 26 27 28 29 30 31 32 33 34
000
FTUS43 KDLH 292041 AAA
TAFHIB
TAF AMD
KHIB 292041Z 2921/3018 21006KT P6SM SCT010 OVC024
     FM300200 22007KT P6SM FEW030 SCT050
     FM300600 18006KT P6SM SCT150
     FM301400 18011KT P6SM SCT050=

USA.gov is the U.S. government's official web portal to all federal, state and local government web resources and services.